sensor_id;sensor_type;location;lat;lon;timestamp;P1;durP1;ratioP1;P2;durP2;ratioP2
49488;SDS011;35382;51.484;11.476;2023-03-21T00:00:25;14.05;;;7.32;;
49488;SDS011;35382;51.484;11.476;2023-03-21T00:02:06;14.88;;;8.20;;
49488;SDS011;35382;51.484;11.476;2023-03-21T00:03:47;10.23;;;7.07;;
49488;SDS011;35382;51.484;11.476;2023-03-21T00:05:29;11.57;;;7.85;;
49488;SDS011;35382;51.484;11.476;2023-03-21T00:07:10;12.52;;;7.95;;
49488;SDS011;35382;51.484;11.476;2023-03-21T00:08:51;12.57;;;7.88;;
49488;SDS011;35382;51.484;11.476;2023-03-21T00:10:32;12.38;;;8.07;;
49488;SDS011;35382;51.484;11.476;2023-03-21T00:12:13;14.32;;;7.95;;
49488;SDS011;35382;51.484;11.476;2023-03-21T00:13:56;12.88;;;7.97;;
49488;SDS011;35382;51.484;11.476;2023-03-21T00:15:42;12.65;;;7.65;;
49488;SDS011;35382;51.484;11.476;2023-03-21T00:17:41;12.45;;;7.93;;
49488;SDS011;35382;51.484;11.476;2023-03-21T00:19:24;12.05;;;7.72;;
49488;SDS011;35382;51.484;11.476;2023-03-21T00:21:06;14.23;;;8.35;;
49488;SDS011;35382;51.484;11.476;2023-03-21T00:22:48;10.93;;;7.80;;
49488;SDS011;35382;51.484;11.476;2023-03-21T00:24:29;13.30;;;8.10;;
49488;SDS011;35382;51.484;11.476;2023-03-21T00:26:10;12.48;;;7.70;;
49488;SDS011;35382;51.484;11.476;2023-03-21T00:27:52;12.05;;;7.80;;
49488;SDS011;35382;51.484;11.476;2023-03-21T00:29:32;11.85;;;8.07;;
49488;SDS011;35382;51.484;11.476;2023-03-21T00:31:13;13.70;;;8.00;;
49488;SDS011;35382;51.484;11.476;2023-03-21T00:32:56;14.50;;;8.35;;
49488;SDS011;35382;51.484;11.476;2023-03-21T00:34:37;11.63;;;7.47;;
49488;SDS011;35382;51.484;11.476;2023-03-21T00:36:18;12.13;;;7.85;;
49488;SDS011;35382;51.484;11.476;2023-03-21T00:37:59;14.32;;;8.20;;
49488;SDS011;35382;51.484;11.476;2023-03-21T00:39:40;14.48;;;7.75;;
49488;SDS011;35382;51.484;11.476;2023-03-21T00:41:21;15.27;;;8.77;;
49488;SDS011;35382;51.484;11.476;2023-03-21T00:43:02;13.65;;;8.95;;
49488;SDS011;35382;51.484;11.476;2023-03-21T00:44:43;13.73;;;8.32;;
49488;SDS011;35382;51.484;11.476;2023-03-21T00:46:24;12.20;;;7.75;;
49488;SDS011;35382;51.484;11.476;2023-03-21T00:48:05;12.93;;;8.05;;
49488;SDS011;35382;51.484;11.476;2023-03-21T00:49:46;12.82;;;8.85;;
49488;SDS011;35382;51.484;11.476;2023-03-21T00:51:27;13.88;;;8.50;;
49488;SDS011;35382;51.484;11.476;2023-03-21T00:53:08;14.45;;;9.50;;
49488;SDS011;35382;51.484;11.476;2023-03-21T00:54:49;13.65;;;8.30;;
49488;SDS011;35382;51.484;11.476;2023-03-21T00:56:30;13.07;;;8.32;;
49488;SDS011;35382;51.484;11.476;2023-03-21T00:58:11;12.07;;;7.63;;
49488;SDS011;35382;51.484;11.476;2023-03-21T00:59:52;12.90;;;7.88;;
49488;SDS011;35382;51.484;11.476;2023-03-21T01:01:33;12.10;;;8.30;;
49488;SDS011;35382;51.484;11.476;2023-03-21T01:03:14;13.07;;;8.40;;
49488;SDS011;35382;51.484;11.476;2023-03-21T01:04:56;11.82;;;8.30;;
49488;SDS011;35382;51.484;11.476;2023-03-21T01:06:37;12.88;;;7.85;;
49488;SDS011;35382;51.484;11.476;2023-03-21T01:08:22;13.18;;;8.15;;
49488;SDS011;35382;51.484;11.476;2023-03-21T01:10:04;12.45;;;7.93;;
49488;SDS011;35382;51.484;11.476;2023-03-21T01:11:45;11.98;;;8.07;;
49488;SDS011;35382;51.484;11.476;2023-03-21T01:13:27;14.57;;;8.13;;
49488;SDS011;35382;51.484;11.476;2023-03-21T01:15:09;13.18;;;8.10;;
49488;SDS011;35382;51.484;11.476;2023-03-21T01:16:50;13.77;;;8.43;;
49488;SDS011;35382;51.484;11.476;2023-03-21T01:18:32;13.38;;;8.57;;
49488;SDS011;35382;51.484;11.476;2023-03-21T01:20:15;12.75;;;7.43;;
49488;SDS011;35382;51.484;11.476;2023-03-21T01:21:57;12.65;;;8.70;;
49488;SDS011;35382;51.484;11.476;2023-03-21T01:23:39;19.23;;;10.00;;
49488;SDS011;35382;51.484;11.476;2023-03-21T01:25:22;13.98;;;8.20;;
49488;SDS011;35382;51.484;11.476;2023-03-21T01:27:03;13.52;;;8.80;;
49488;SDS011;35382;51.484;11.476;2023-03-21T01:28:44;16.55;;;8.90;;
49488;SDS011;35382;51.484;11.476;2023-03-21T01:30:26;12.30;;;8.23;;
49488;SDS011;35382;51.484;11.476;2023-03-21T01:32:07;12.35;;;7.85;;
49488;SDS011;35382;51.484;11.476;2023-03-21T01:33:48;12.60;;;8.57;;
49488;SDS011;35382;51.484;11.476;2023-03-21T01:35:30;15.93;;;8.15;;
49488;SDS011;35382;51.484;11.476;2023-03-21T01:37:11;11.60;;;7.82;;
49488;SDS011;35382;51.484;11.476;2023-03-21T01:39:00;13.07;;;8.30;;
49488;SDS011;35382;51.484;11.476;2023-03-21T01:40:42;13.60;;;8.57;;
49488;SDS011;35382;51.484;11.476;2023-03-21T01:42:33;13.23;;;8.55;;
49488;SDS011;35382;51.484;11.476;2023-03-21T01:44:18;13.60;;;8.57;;
49488;SDS011;35382;51.484;11.476;2023-03-21T01:48:08;14.68;;;9.07;;
49488;SDS011;35382;51.484;11.476;2023-03-21T01:49:58;14.13;;;8.82;;
49488;SDS011;35382;51.484;11.476;2023-03-21T01:51:53;15.20;;;9.45;;
49488;SDS011;35382;51.484;11.476;2023-03-21T01:53:38;12.70;;;8.48;;
49488;SDS011;35382;51.484;11.476;2023-03-21T01:55:22;14.27;;;8.30;;
49488;SDS011;35382;51.484;11.476;2023-03-21T01:57:24;14.38;;;8.82;;
49488;SDS011;35382;51.484;11.476;2023-03-21T01:59:19;14.35;;;9.43;;
49488;SDS011;35382;51.484;11.476;2023-03-21T02:01:21;16.65;;;9.60;;
49488;SDS011;35382;51.484;11.476;2023-03-21T02:03:08;15.70;;;9.90;;
49488;SDS011;35382;51.484;11.476;2023-03-21T02:05:00;14.95;;;9.30;;
49488;SDS011;35382;51.484;11.476;2023-03-21T02:08:46;16.35;;;8.82;;
49488;SDS011;35382;51.484;11.476;2023-03-21T02:10:30;15.93;;;9.25;;
49488;SDS011;35382;51.484;11.476;2023-03-21T02:12:13;15.60;;;8.98;;
49488;SDS011;35382;51.484;11.476;2023-03-21T02:13:55;15.68;;;8.98;;
49488;SDS011;35382;51.484;11.476;2023-03-21T02:15:38;18.60;;;9.48;;
49488;SDS011;35382;51.484;11.476;2023-03-21T02:17:51;15.60;;;8.95;;
49488;SDS011;35382;51.484;11.476;2023-03-21T02:20:12;16.63;;;9.23;;
49488;SDS011;35382;51.484;11.476;2023-03-21T02:22:26;15.23;;;9.40;;
49488;SDS011;35382;51.484;11.476;2023-03-21T02:24:45;21.27;;;10.50;;
49488;SDS011;35382;51.484;11.476;2023-03-21T02:28:38;19.65;;;10.07;;
49488;SDS011;35382;51.484;11.476;2023-03-21T02:30:44;15.75;;;10.15;;
49488;SDS011;35382;51.484;11.476;2023-03-21T02:37:06;20.05;;;10.20;;
49488;SDS011;35382;51.484;11.476;2023-03-21T02:42:54;15.63;;;9.98;;
49488;SDS011;35382;51.484;11.476;2023-03-21T02:44:49;17.60;;;10.95;;
49488;SDS011;35382;51.484;11.476;2023-03-21T02:48:45;17.10;;;10.60;;
49488;SDS011;35382;51.484;11.476;2023-03-21T02:50:42;18.52;;;11.40;;
49488;SDS011;35382;51.484;11.476;2023-03-21T02:52:31;19.10;;;10.95;;
49488;SDS011;35382;51.484;11.476;2023-03-21T02:54:18;18.85;;;10.55;;
49488;SDS011;35382;51.484;11.476;2023-03-21T02:56:02;16.67;;;10.75;;
49488;SDS011;35382;51.484;11.476;2023-03-21T02:57:51;16.38;;;10.77;;
49488;SDS011;35382;51.484;11.476;2023-03-21T02:59:35;22.63;;;10.70;;
49488;SDS011;35382;51.484;11.476;2023-03-21T03:01:18;20.10;;;10.63;;
49488;SDS011;35382;51.484;11.476;2023-03-21T03:03:02;14.65;;;9.75;;
49488;SDS011;35382;51.484;11.476;2023-03-21T03:04:43;16.50;;;10.23;;
49488;SDS011;35382;51.484;11.476;2023-03-21T03:07:00;19.00;;;10.85;;
49488;SDS011;35382;51.484;11.476;2023-03-21T03:11:09;17.85;;;10.48;;
49488;SDS011;35382;51.484;11.476;2023-03-21T03:16:57;16.63;;;10.02;;
49488;SDS011;35382;51.484;11.476;2023-03-21T03:18:50;19.35;;;10.77;;
49488;SDS011;35382;51.484;11.476;2023-03-21T03:20:37;15.30;;;9.68;;
49488;SDS011;35382;51.484;11.476;2023-03-21T03:22:22;14.95;;;9.45;;
49488;SDS011;35382;51.484;11.476;2023-03-21T03:24:10;18.23;;;10.48;;
49488;SDS011;35382;51.484;11.476;2023-03-21T03:27:49;18.63;;;11.23;;
49488;SDS011;35382;51.484;11.476;2023-03-21T03:29:33;16.15;;;11.25;;
49488;SDS011;35382;51.484;11.476;2023-03-21T03:33:10;19.70;;;10.93;;
49488;SDS011;35382;51.484;11.476;2023-03-21T03:34:56;17.52;;;11.73;;
49488;SDS011;35382;51.484;11.476;2023-03-21T03:36:46;18.38;;;12.07;;
49488;SDS011;35382;51.484;11.476;2023-03-21T03:38:31;19.25;;;12.77;;
49488;SDS011;35382;51.484;11.476;2023-03-21T03:40:25;18.25;;;11.48;;
49488;SDS011;35382;51.484;11.476;2023-03-21T03:42:26;17.88;;;11.15;;
49488;SDS011;35382;51.484;11.476;2023-03-21T03:44:17;19.52;;;11.90;;
49488;SDS011;35382;51.484;11.476;2023-03-21T03:46:08;20.52;;;12.35;;
49488;SDS011;35382;51.484;11.476;2023-03-21T03:49:49;20.02;;;11.77;;
49488;SDS011;35382;51.484;11.476;2023-03-21T03:51:42;18.85;;;12.07;;
49488;SDS011;35382;51.484;11.476;2023-03-21T03:53:59;19.75;;;11.93;;
49488;SDS011;35382;51.484;11.476;2023-03-21T03:55:44;22.65;;;12.93;;
49488;SDS011;35382;51.484;11.476;2023-03-21T03:57:31;19.23;;;12.57;;
49488;SDS011;35382;51.484;11.476;2023-03-21T03:59:13;21.92;;;13.00;;
49488;SDS011;35382;51.484;11.476;2023-03-21T04:01:14;19.80;;;12.02;;
49488;SDS011;35382;51.484;11.476;2023-03-21T04:02:55;20.50;;;12.43;;
49488;SDS011;35382;51.484;11.476;2023-03-21T04:04:39;22.45;;;12.70;;
49488;SDS011;35382;51.484;11.476;2023-03-21T04:06:21;19.90;;;12.77;;
49488;SDS011;35382;51.484;11.476;2023-03-21T04:08:04;18.80;;;12.65;;
49488;SDS011;35382;51.484;11.476;2023-03-21T04:09:53;20.77;;;12.70;;
49488;SDS011;35382;51.484;11.476;2023-03-21T04:11:34;17.70;;;11.85;;
49488;SDS011;35382;51.484;11.476;2023-03-21T04:13:16;17.10;;;12.43;;
49488;SDS011;35382;51.484;11.476;2023-03-21T04:15:03;19.65;;;12.20;;
49488;SDS011;35382;51.484;11.476;2023-03-21T04:16:44;18.52;;;12.18;;
49488;SDS011;35382;51.484;11.476;2023-03-21T04:18:25;18.85;;;12.10;;
49488;SDS011;35382;51.484;11.476;2023-03-21T04:20:10;19.80;;;12.20;;
49488;SDS011;35382;51.484;11.476;2023-03-21T04:21:51;16.77;;;11.98;;
49488;SDS011;35382;51.484;11.476;2023-03-21T04:23:33;19.10;;;11.90;;
49488;SDS011;35382;51.484;11.476;2023-03-21T04:25:15;21.92;;;12.93;;
49488;SDS011;35382;51.484;11.476;2023-03-21T04:26:56;19.25;;;12.90;;
49488;SDS011;35382;51.484;11.476;2023-03-21T04:28:51;20.48;;;12.50;;
49488;SDS011;35382;51.484;11.476;2023-03-21T04:30:52;20.38;;;12.07;;
49488;SDS011;35382;51.484;11.476;2023-03-21T04:32:37;17.90;;;11.98;;
49488;SDS011;35382;51.484;11.476;2023-03-21T04:34:24;19.05;;;12.35;;
49488;SDS011;35382;51.484;11.476;2023-03-21T04:36:10;19.77;;;12.38;;
49488;SDS011;35382;51.484;11.476;2023-03-21T04:38:05;19.85;;;12.63;;
49488;SDS011;35382;51.484;11.476;2023-03-21T04:39:46;18.27;;;13.35;;
49488;SDS011;35382;51.484;11.476;2023-03-21T04:41:27;20.02;;;13.35;;
49488;SDS011;35382;51.484;11.476;2023-03-21T04:43:08;19.83;;;12.95;;
49488;SDS011;35382;51.484;11.476;2023-03-21T04:44:53;17.13;;;12.10;;
49488;SDS011;35382;51.484;11.476;2023-03-21T04:46:34;18.48;;;13.15;;
49488;SDS011;35382;51.484;11.476;2023-03-21T04:48:15;21.35;;;11.90;;
49488;SDS011;35382;51.484;11.476;2023-03-21T04:49:59;19.98;;;13.27;;
49488;SDS011;35382;51.484;11.476;2023-03-21T04:51:40;18.17;;;12.93;;
49488;SDS011;35382;51.484;11.476;2023-03-21T04:53:25;19.60;;;12.50;;
49488;SDS011;35382;51.484;11.476;2023-03-21T04:55:06;20.73;;;13.43;;
49488;SDS011;35382;51.484;11.476;2023-03-21T04:56:49;18.40;;;12.55;;
49488;SDS011;35382;51.484;11.476;2023-03-21T04:58:31;18.55;;;12.95;;
49488;SDS011;35382;51.484;11.476;2023-03-21T05:00:12;21.77;;;13.85;;
49488;SDS011;35382;51.484;11.476;2023-03-21T05:01:54;20.27;;;12.70;;
49488;SDS011;35382;51.484;11.476;2023-03-21T05:03:36;19.73;;;13.57;;
49488;SDS011;35382;51.484;11.476;2023-03-21T05:05:19;21.45;;;13.93;;
49488;SDS011;35382;51.484;11.476;2023-03-21T05:07:02;24.02;;;13.80;;
49488;SDS011;35382;51.484;11.476;2023-03-21T05:08:43;21.60;;;13.73;;
49488;SDS011;35382;51.484;11.476;2023-03-21T05:10:28;18.55;;;12.90;;
49488;SDS011;35382;51.484;11.476;2023-03-21T05:12:09;22.77;;;13.45;;
49488;SDS011;35382;51.484;11.476;2023-03-21T05:13:50;21.85;;;12.75;;
49488;SDS011;35382;51.484;11.476;2023-03-21T05:15:31;19.77;;;12.52;;
49488;SDS011;35382;51.484;11.476;2023-03-21T05:17:12;20.70;;;13.07;;
49488;SDS011;35382;51.484;11.476;2023-03-21T05:18:55;20.38;;;13.13;;
49488;SDS011;35382;51.484;11.476;2023-03-21T05:20:39;23.25;;;13.00;;
49488;SDS011;35382;51.484;11.476;2023-03-21T05:22:24;20.17;;;13.43;;
49488;SDS011;35382;51.484;11.476;2023-03-21T05:24:13;18.30;;;12.73;;
49488;SDS011;35382;51.484;11.476;2023-03-21T05:26:00;18.88;;;12.00;;
49488;SDS011;35382;51.484;11.476;2023-03-21T05:28:13;22.85;;;11.95;;
49488;SDS011;35382;51.484;11.476;2023-03-21T05:31:50;18.23;;;11.20;;
49488;SDS011;35382;51.484;11.476;2023-03-21T05:33:31;18.90;;;12.15;;
49488;SDS011;35382;51.484;11.476;2023-03-21T05:35:12;16.02;;;10.98;;
49488;SDS011;35382;51.484;11.476;2023-03-21T05:36:53;21.35;;;11.73;;
49488;SDS011;35382;51.484;11.476;2023-03-21T05:38:37;16.77;;;10.85;;
49488;SDS011;35382;51.484;11.476;2023-03-21T05:40:22;18.23;;;10.65;;
49488;SDS011;35382;51.484;11.476;2023-03-21T05:42:03;17.85;;;10.38;;
49488;SDS011;35382;51.484;11.476;2023-03-21T05:43:46;17.40;;;10.38;;
49488;SDS011;35382;51.484;11.476;2023-03-21T05:45:29;18.38;;;10.35;;
49488;SDS011;35382;51.484;11.476;2023-03-21T05:47:14;16.52;;;10.63;;
49488;SDS011;35382;51.484;11.476;2023-03-21T05:48:59;15.65;;;10.35;;
49488;SDS011;35382;51.484;11.476;2023-03-21T05:50:40;15.20;;;10.73;;
49488;SDS011;35382;51.484;11.476;2023-03-21T05:52:30;18.45;;;10.55;;
49488;SDS011;35382;51.484;11.476;2023-03-21T05:54:13;15.00;;;9.55;;
49488;SDS011;35382;51.484;11.476;2023-03-21T05:56:01;15.93;;;10.02;;
49488;SDS011;35382;51.484;11.476;2023-03-21T05:58:00;15.90;;;10.10;;
49488;SDS011;35382;51.484;11.476;2023-03-21T05:59:44;15.25;;;9.25;;
49488;SDS011;35382;51.484;11.476;2023-03-21T06:01:25;16.23;;;10.65;;
49488;SDS011;35382;51.484;11.476;2023-03-21T06:03:19;16.45;;;9.02;;
49488;SDS011;35382;51.484;11.476;2023-03-21T06:05:14;17.33;;;8.88;;
49488;SDS011;35382;51.484;11.476;2023-03-21T06:06:55;16.95;;;9.35;;
49488;SDS011;35382;51.484;11.476;2023-03-21T06:08:37;13.98;;;8.45;;
49488;SDS011;35382;51.484;11.476;2023-03-21T06:10:19;13.25;;;8.43;;
49488;SDS011;35382;51.484;11.476;2023-03-21T06:12:02;13.13;;;7.95;;
49488;SDS011;35382;51.484;11.476;2023-03-21T06:13:56;15.55;;;8.75;;
49488;SDS011;35382;51.484;11.476;2023-03-21T06:15:37;13.18;;;8.20;;
49488;SDS011;35382;51.484;11.476;2023-03-21T06:17:28;14.48;;;8.32;;
49488;SDS011;35382;51.484;11.476;2023-03-21T06:19:16;12.80;;;8.23;;
49488;SDS011;35382;51.484;11.476;2023-03-21T06:21:17;12.35;;;7.80;;
49488;SDS011;35382;51.484;11.476;2023-03-21T06:22:58;11.70;;;7.20;;
49488;SDS011;35382;51.484;11.476;2023-03-21T06:24:39;14.93;;;7.45;;
49488;SDS011;35382;51.484;11.476;2023-03-21T06:26:20;13.32;;;7.72;;
49488;SDS011;35382;51.484;11.476;2023-03-21T06:28:03;13.82;;;7.68;;
49488;SDS011;35382;51.484;11.476;2023-03-21T06:29:44;13.70;;;8.00;;
49488;SDS011;35382;51.484;11.476;2023-03-21T06:31:26;11.75;;;7.22;;
49488;SDS011;35382;51.484;11.476;2023-03-21T06:33:13;16.88;;;7.38;;
49488;SDS011;35382;51.484;11.476;2023-03-21T06:34:54;12.13;;;7.57;;
49488;SDS011;35382;51.484;11.476;2023-03-21T06:36:36;13.25;;;7.10;;
49488;SDS011;35382;51.484;11.476;2023-03-21T06:38:17;14.50;;;7.13;;
49488;SDS011;35382;51.484;11.476;2023-03-21T06:39:58;15.13;;;7.40;;
49488;SDS011;35382;51.484;11.476;2023-03-21T06:41:39;13.75;;;6.97;;
49488;SDS011;35382;51.484;11.476;2023-03-21T06:43:20;15.52;;;9.10;;
49488;SDS011;35382;51.484;11.476;2023-03-21T06:45:02;13.00;;;7.22;;
49488;SDS011;35382;51.484;11.476;2023-03-21T06:46:43;14.02;;;8.13;;
49488;SDS011;35382;51.484;11.476;2023-03-21T06:48:26;14.07;;;8.48;;
49488;SDS011;35382;51.484;11.476;2023-03-21T06:50:09;14.95;;;8.43;;
49488;SDS011;35382;51.484;11.476;2023-03-21T06:51:55;15.90;;;8.15;;
49488;SDS011;35382;51.484;11.476;2023-03-21T06:53:37;13.45;;;8.55;;
49488;SDS011;35382;51.484;11.476;2023-03-21T06:55:31;13.43;;;7.35;;
49488;SDS011;35382;51.484;11.476;2023-03-21T06:57:13;13.40;;;7.57;;
49488;SDS011;35382;51.484;11.476;2023-03-21T06:58:55;13.82;;;7.55;;
49488;SDS011;35382;51.484;11.476;2023-03-21T07:00:57;14.10;;;6.57;;
49488;SDS011;35382;51.484;11.476;2023-03-21T07:02:39;12.73;;;7.97;;
49488;SDS011;35382;51.484;11.476;2023-03-21T07:04:25;12.73;;;7.78;;
49488;SDS011;35382;51.484;11.476;2023-03-21T07:06:08;14.70;;;7.43;;
49488;SDS011;35382;51.484;11.476;2023-03-21T07:07:53;14.88;;;8.18;;
49488;SDS011;35382;51.484;11.476;2023-03-21T07:09:34;13.63;;;6.82;;
49488;SDS011;35382;51.484;11.476;2023-03-21T07:11:19;13.30;;;7.43;;
49488;SDS011;35382;51.484;11.476;2023-03-21T07:13:01;12.65;;;6.53;;
49488;SDS011;35382;51.484;11.476;2023-03-21T07:14:50;13.73;;;6.40;;
49488;SDS011;35382;51.484;11.476;2023-03-21T07:16:31;10.70;;;6.35;;
49488;SDS011;35382;51.484;11.476;2023-03-21T07:18:12;15.68;;;7.35;;
49488;SDS011;35382;51.484;11.476;2023-03-21T07:19:53;16.65;;;6.93;;
49488;SDS011;35382;51.484;11.476;2023-03-21T07:21:34;14.95;;;6.50;;
49488;SDS011;35382;51.484;11.476;2023-03-21T07:23:16;11.50;;;6.28;;
49488;SDS011;35382;51.484;11.476;2023-03-21T07:24:58;12.88;;;6.40;;
49488;SDS011;35382;51.484;11.476;2023-03-21T07:26:39;13.10;;;6.78;;
49488;SDS011;35382;51.484;11.476;2023-03-21T07:28:21;13.70;;;6.47;;
49488;SDS011;35382;51.484;11.476;2023-03-21T07:30:03;12.85;;;6.80;;
49488;SDS011;35382;51.484;11.476;2023-03-21T07:31:45;14.20;;;5.95;;
49488;SDS011;35382;51.484;11.476;2023-03-21T07:33:26;13.80;;;6.68;;
49488;SDS011;35382;51.484;11.476;2023-03-21T07:35:11;11.05;;;6.20;;
49488;SDS011;35382;51.484;11.476;2023-03-21T07:37:00;10.90;;;6.43;;
49488;SDS011;35382;51.484;11.476;2023-03-21T07:38:42;11.93;;;6.47;;
49488;SDS011;35382;51.484;11.476;2023-03-21T07:40:24;13.82;;;6.78;;
49488;SDS011;35382;51.484;11.476;2023-03-21T07:42:05;12.48;;;6.18;;
49488;SDS011;35382;51.484;11.476;2023-03-21T07:43:51;10.68;;;6.18;;
49488;SDS011;35382;51.484;11.476;2023-03-21T07:45:32;10.85;;;6.50;;
49488;SDS011;35382;51.484;11.476;2023-03-21T07:47:13;13.43;;;6.90;;
49488;SDS011;35382;51.484;11.476;2023-03-21T07:48:54;12.27;;;6.72;;
49488;SDS011;35382;51.484;11.476;2023-03-21T07:50:36;13.30;;;6.97;;
49488;SDS011;35382;51.484;11.476;2023-03-21T07:52:17;14.07;;;6.38;;
49488;SDS011;35382;51.484;11.476;2023-03-21T07:53:58;13.68;;;6.95;;
49488;SDS011;35382;51.484;11.476;2023-03-21T07:55:39;11.80;;;7.22;;
49488;SDS011;35382;51.484;11.476;2023-03-21T07:57:20;12.43;;;6.35;;
49488;SDS011;35382;51.484;11.476;2023-03-21T07:59:01;11.80;;;6.30;;
49488;SDS011;35382;51.484;11.476;2023-03-21T08:00:42;11.55;;;6.60;;
49488;SDS011;35382;51.484;11.476;2023-03-21T08:02:23;11.55;;;6.55;;
49488;SDS011;35382;51.484;11.476;2023-03-21T08:04:04;16.15;;;6.43;;
49488;SDS011;35382;51.484;11.476;2023-03-21T08:05:45;13.23;;;6.75;;
49488;SDS011;35382;51.484;11.476;2023-03-21T08:07:26;13.07;;;5.90;;
49488;SDS011;35382;51.484;11.476;2023-03-21T08:09:07;11.55;;;5.85;;
49488;SDS011;35382;51.484;11.476;2023-03-21T08:10:48;11.13;;;7.15;;
49488;SDS011;35382;51.484;11.476;2023-03-21T08:12:29;11.93;;;6.40;;
49488;SDS011;35382;51.484;11.476;2023-03-21T08:14:10;13.80;;;6.45;;
49488;SDS011;35382;51.484;11.476;2023-03-21T08:15:51;12.95;;;6.47;;
49488;SDS011;35382;51.484;11.476;2023-03-21T08:17:32;16.33;;;7.13;;
49488;SDS011;35382;51.484;11.476;2023-03-21T08:19:13;12.02;;;5.78;;
49488;SDS011;35382;51.484;11.476;2023-03-21T08:20:57;15.23;;;6.78;;
49488;SDS011;35382;51.484;11.476;2023-03-21T08:22:40;15.15;;;6.85;;
49488;SDS011;35382;51.484;11.476;2023-03-21T08:24:22;13.65;;;6.53;;
49488;SDS011;35382;51.484;11.476;2023-03-21T08:26:03;13.40;;;5.78;;
49488;SDS011;35382;51.484;11.476;2023-03-21T08:27:45;17.42;;;7.07;;
49488;SDS011;35382;51.484;11.476;2023-03-21T08:29:26;13.13;;;5.80;;
49488;SDS011;35382;51.484;11.476;2023-03-21T08:31:07;12.82;;;6.28;;
49488;SDS011;35382;51.484;11.476;2023-03-21T08:32:49;10.45;;;5.03;;
49488;SDS011;35382;51.484;11.476;2023-03-21T08:34:31;11.82;;;5.68;;
49488;SDS011;35382;51.484;11.476;2023-03-21T08:36:12;10.85;;;5.25;;
49488;SDS011;35382;51.484;11.476;2023-03-21T08:37:52;12.50;;;5.82;;
49488;SDS011;35382;51.484;11.476;2023-03-21T08:39:33;11.35;;;5.00;;
49488;SDS011;35382;51.484;11.476;2023-03-21T08:41:14;10.80;;;5.70;;
49488;SDS011;35382;51.484;11.476;2023-03-21T08:42:55;9.02;;;5.63;;
49488;SDS011;35382;51.484;11.476;2023-03-21T08:44:36;14.07;;;6.07;;
49488;SDS011;35382;51.484;11.476;2023-03-21T08:46:19;12.40;;;5.85;;
49488;SDS011;35382;51.484;11.476;2023-03-21T08:48:00;10.18;;;6.07;;
49488;SDS011;35382;51.484;11.476;2023-03-21T08:49:41;12.82;;;6.70;;
49488;SDS011;35382;51.484;11.476;2023-03-21T08:51:25;13.32;;;6.00;;
49488;SDS011;35382;51.484;11.476;2023-03-21T08:53:06;10.18;;;5.45;;
49488;SDS011;35382;51.484;11.476;2023-03-21T08:54:47;10.93;;;5.28;;
49488;SDS011;35382;51.484;11.476;2023-03-21T08:56:28;11.95;;;5.55;;
49488;SDS011;35382;51.484;11.476;2023-03-21T08:58:09;10.63;;;6.28;;
49488;SDS011;35382;51.484;11.476;2023-03-21T08:59:50;10.23;;;5.50;;
49488;SDS011;35382;51.484;11.476;2023-03-21T09:01:31;11.57;;;5.47;;
49488;SDS011;35382;51.484;11.476;2023-03-21T09:03:12;10.07;;;5.97;;
49488;SDS011;35382;51.484;11.476;2023-03-21T09:04:53;10.48;;;6.03;;
49488;SDS011;35382;51.484;11.476;2023-03-21T09:06:38;11.77;;;5.97;;
49488;SDS011;35382;51.484;11.476;2023-03-21T09:08:29;15.43;;;6.30;;
49488;SDS011;35382;51.484;11.476;2023-03-21T09:10:11;13.32;;;6.35;;
49488;SDS011;35382;51.484;11.476;2023-03-21T09:11:54;17.02;;;6.78;;
49488;SDS011;35382;51.484;11.476;2023-03-21T09:13:35;12.48;;;6.82;;
49488;SDS011;35382;51.484;11.476;2023-03-21T09:15:16;11.82;;;6.40;;
49488;SDS011;35382;51.484;11.476;2023-03-21T09:16:59;13.05;;;6.80;;
49488;SDS011;35382;51.484;11.476;2023-03-21T09:18:40;12.23;;;6.10;;
49488;SDS011;35382;51.484;11.476;2023-03-21T09:20:26;11.27;;;5.82;;
49488;SDS011;35382;51.484;11.476;2023-03-21T09:22:14;12.70;;;6.60;;
49488;SDS011;35382;51.484;11.476;2023-03-21T09:23:57;12.20;;;6.22;;
49488;SDS011;35382;51.484;11.476;2023-03-21T09:25:43;16.27;;;7.13;;
49488;SDS011;35382;51.484;11.476;2023-03-21T09:27:25;12.30;;;6.72;;
49488;SDS011;35382;51.484;11.476;2023-03-21T09:29:07;9.90;;;6.05;;
49488;SDS011;35382;51.484;11.476;2023-03-21T09:30:48;12.35;;;6.80;;
49488;SDS011;35382;51.484;11.476;2023-03-21T09:32:29;13.73;;;7.28;;
49488;SDS011;35382;51.484;11.476;2023-03-21T09:34:11;13.88;;;7.45;;
49488;SDS011;35382;51.484;11.476;2023-03-21T09:35:54;14.65;;;6.30;;
49488;SDS011;35382;51.484;11.476;2023-03-21T09:37:36;11.38;;;6.72;;
49488;SDS011;35382;51.484;11.476;2023-03-21T09:39:22;12.38;;;7.03;;
49488;SDS011;35382;51.484;11.476;2023-03-21T09:49:17;12.18;;;7.47;;
49488;SDS011;35382;51.484;11.476;2023-03-21T09:51:01;14.88;;;7.20;;
49488;SDS011;35382;51.484;11.476;2023-03-21T09:52:45;13.65;;;7.30;;
49488;SDS011;35382;51.484;11.476;2023-03-21T09:54:35;14.57;;;7.20;;
49488;SDS011;35382;51.484;11.476;2023-03-21T09:56:18;14.45;;;6.97;;
49488;SDS011;35382;51.484;11.476;2023-03-21T09:58:02;13.27;;;7.72;;
49488;SDS011;35382;51.484;11.476;2023-03-21T09:59:55;13.07;;;6.93;;
49488;SDS011;35382;51.484;11.476;2023-03-21T10:01:39;16.08;;;7.20;;
49488;SDS011;35382;51.484;11.476;2023-03-21T10:03:30;13.25;;;7.40;;
49488;SDS011;35382;51.484;11.476;2023-03-21T10:05:22;16.02;;;7.05;;
49488;SDS011;35382;51.484;11.476;2023-03-21T10:07:05;15.35;;;7.40;;
49488;SDS011;35382;51.484;11.476;2023-03-21T10:08:47;11.30;;;6.68;;
49488;SDS011;35382;51.484;11.476;2023-03-21T10:10:30;12.43;;;7.35;;
49488;SDS011;35382;51.484;11.476;2023-03-21T10:12:16;15.68;;;7.35;;
49488;SDS011;35382;51.484;11.476;2023-03-21T10:14:02;11.70;;;7.13;;
49488;SDS011;35382;51.484;11.476;2023-03-21T10:15:46;14.95;;;7.88;;
49488;SDS011;35382;51.484;11.476;2023-03-21T10:17:28;12.88;;;7.85;;
49488;SDS011;35382;51.484;11.476;2023-03-21T10:19:17;16.15;;;8.13;;
49488;SDS011;35382;51.484;11.476;2023-03-21T10:20:59;12.63;;;8.02;;
49488;SDS011;35382;51.484;11.476;2023-03-21T10:22:43;13.00;;;7.43;;
49488;SDS011;35382;51.484;11.476;2023-03-21T10:24:26;13.07;;;7.53;;
49488;SDS011;35382;51.484;11.476;2023-03-21T10:26:09;16.42;;;7.15;;
49488;SDS011;35382;51.484;11.476;2023-03-21T10:27:51;14.52;;;8.55;;
49488;SDS011;35382;51.484;11.476;2023-03-21T10:29:41;15.90;;;7.57;;
49488;SDS011;35382;51.484;11.476;2023-03-21T10:31:24;12.05;;;7.30;;
49488;SDS011;35382;51.484;11.476;2023-03-21T10:33:10;12.80;;;7.22;;
49488;SDS011;35382;51.484;11.476;2023-03-21T10:34:55;17.00;;;7.88;;
49488;SDS011;35382;51.484;11.476;2023-03-21T10:36:37;11.93;;;7.05;;
49488;SDS011;35382;51.484;11.476;2023-03-21T10:38:22;13.15;;;7.95;;
49488;SDS011;35382;51.484;11.476;2023-03-21T10:40:05;13.80;;;7.63;;
49488;SDS011;35382;51.484;11.476;2023-03-21T10:41:48;12.63;;;7.40;;
49488;SDS011;35382;51.484;11.476;2023-03-21T10:43:34;14.20;;;8.13;;
49488;SDS011;35382;51.484;11.476;2023-03-21T10:45:17;13.05;;;7.65;;
49488;SDS011;35382;51.484;11.476;2023-03-21T10:47:06;13.00;;;7.68;;
49488;SDS011;35382;51.484;11.476;2023-03-21T10:48:52;14.07;;;8.05;;